Isla De Los Estados, Argentina
Current Conditions -  °F | °C
As of 8:00 PM on Saturday 25 Oct 2014 (Local Time) from SAWH Reporting Station
Drizzle Drizzle  
Wind Chill: 35°   Ceiling: 4000
Heat Index: 45°   Visibility: 6mi
Dew Point: 37°   Wind: 28mph
Humidity: 76%   Direction: 250°WSW
Pressure: 29.15"   Gusts: 43mph
Location:  54.93°S, 64.65°W
Report Text: SAWH 252300Z 25024G37KT 9999 DZ SCT030BKN040 BKN080 07/03 Q0987
Loading
Personal Weather Stations






























Interactive Weather Map
Tropical Storm Tracking
New forecast layout! Learn more

10-Day Weather Forecast

Advertisements
Track Severe Weather on mobile